Time;durP1;ratioP1;P1;durP2;ratioP2;P2;SDS_P1;SDS_P2;PMS_P1;PMS_P2;Temp;Humidity;BMP_temperature;BMP_pressure;BME280_temperature;BME280_humidity;BME280_pressure;Samples;Min_cycle;Max_cycle;Signal;HPM_P1;HPM_P2
2022/07/07 00:00:52;;;;;;;4.43;2.03;;;;;;;19.19;56.20;100460.44;4936860;29;20103;-72
2022/07/07 00:03:20;;;;;;;3.60;2.13;;;;;;;19.15;56.20;100456.31;4936295;29;20486;-72
2022/07/07 00:05:49;;;;;;;3.13;1.90;;;;;;;19.09;56.67;100459.56;4936511;29;20047;-72
2022/07/07 00:08:17;;;;;;;3.72;1.80;;;;;;;19.19;55.86;100465.84;4936449;29;20052;-71
2022/07/07 00:10:45;;;;;;;3.72;1.95;;;;;;;19.12;56.09;100453.91;4936561;29;20043;-71
2022/07/07 00:13:14;;;;;;;4.85;2.10;;;;;;;19.05;55.34;100459.00;4936541;29;20075;-72
2022/07/07 00:15:45;;;;;;;3.80;2.20;;;;;;;19.02;55.65;100467.41;4936675;29;20462;-72
2022/07/07 00:18:13;;;;;;;3.28;1.67;;;;;;;19.02;55.81;100464.72;4936591;29;20564;-72
2022/07/07 00:20:41;;;;;;;4.40;1.83;;;;;;;18.82;55.84;100458.44;4936668;29;20044;-71
2022/07/07 00:23:09;;;;;;;3.10;1.85;;;;;;;18.78;56.20;100454.28;4936671;29;20041;-71
2022/07/07 00:25:38;;;;;;;2.55;1.77;;;;;;;18.85;56.47;100457.28;4936510;29;20127;-72
2022/07/07 00:28:06;;;;;;;3.72;2.10;;;;;;;18.94;55.66;100453.75;4919247;29;20051;-71
2022/07/07 00:30:34;;;;;;;4.25;1.90;;;;;;;18.94;55.96;100461.84;4936061;29;20059;-71
2022/07/07 00:33:04;;;;;;;3.92;2.22;;;;;;;18.95;55.95;100454.59;4936505;29;20047;-71
2022/07/07 00:35:32;;;;;;;3.55;2.00;;;;;;;18.81;56.31;100459.41;4936151;29;20048;-72
2022/07/07 00:38:00;;;;;;;3.83;1.85;;;;;;;18.74;58.71;100455.56;4936003;29;20405;-72
2022/07/07 00:40:29;;;;;;;3.25;1.90;;;;;;;18.56;59.56;100452.66;4918652;29;20131;-71
2022/07/07 00:42:58;;;;;;;3.95;1.98;;;;;;;18.67;59.08;100457.13;4936373;29;20062;-71
2022/07/07 00:45:27;;;;;;;3.17;1.98;;;;;;;18.67;57.68;100453.56;4935823;29;20131;-72
2022/07/07 00:47:55;;;;;;;3.75;1.83;;;;;;;18.57;58.91;100464.31;4918928;29;20146;-72
2022/07/07 00:50:25;;;;;;;3.67;2.10;;;;;;;18.58;61.09;100460.63;4935812;29;20052;-72
2022/07/07 00:52:54;;;;;;;3.53;1.88;;;;;;;18.48;62.11;100465.16;4935871;29;20082;-73
2022/07/07 00:55:23;;;;;;;4.25;1.98;;;;;;;18.34;63.12;100457.44;4935859;29;20130;-70
2022/07/07 00:57:51;;;;;;;3.78;1.88;;;;;;;18.33;62.01;100461.94;4936326;29;20043;-72
2022/07/07 01:00:19;;;;;;;4.22;2.20;;;;;;;18.36;61.46;100463.56;4935854;29;20478;-72
2022/07/07 01:02:52;;;;;;;3.70;2.03;;;;;;;18.41;61.12;100466.69;4936333;29;20055;-71
2022/07/07 01:05:21;;;;;;;6.10;2.20;;;;;;;18.38;61.84;100454.31;4935804;29;20533;-71
2022/07/07 01:07:52;;;;;;;3.10;2.00;;;;;;;18.40;62.74;100457.72;4935916;29;20103;-71
2022/07/07 01:10:20;;;;;;;3.65;2.17;;;;;;;18.38;62.00;100461.56;4935584;29;20126;-72
2022/07/07 01:12:48;;;;;;;4.15;2.10;;;;;;;18.38;62.33;100459.72;4935832;29;20093;-71
2022/07/07 01:15:17;;;;;;;3.40;1.98;;;;;;;18.34;62.46;100458.28;4935582;29;20119;-74
2022/07/07 01:17:45;;;;;;;4.18;2.17;;;;;;;18.19;62.26;100462.34;4936032;29;20047;-74
2022/07/07 01:20:13;;;;;;;3.72;2.20;;;;;;;18.24;62.86;100466.34;4936128;29;20070;-73
2022/07/07 01:22:47;;;;;;;3.55;2.38;;;;;;;18.21;62.65;100458.50;4935524;29;20091;-72
2022/07/07 01:25:15;;;;;;;3.63;2.13;;;;;;;18.05;63.48;100463.56;4935941;29;20134;-71
2022/07/07 01:27:44;;;;;;;4.10;2.22;;;;;;;18.11;63.39;100460.31;4935777;29;20090;-71
2022/07/07 01:30:13;;;;;;;5.13;2.40;;;;;;;18.26;61.75;100456.25;4935595;29;20074;-71
2022/07/07 01:32:41;;;;;;;4.47;2.20;;;;;;;18.11;62.34;100465.72;4935747;29;20480;-69
2022/07/07 01:35:11;;;;;;;4.30;2.30;;;;;;;18.13;61.88;100463.72;4935426;29;20498;-70
2022/07/07 01:37:39;;;;;;;5.20;2.17;;;;;;;18.07;63.26;100461.59;4935356;29;20402;-70
2022/07/07 01:40:10;;;;;;;3.85;2.40;;;;;;;18.12;62.55;100461.16;4935585;29;20071;-71
2022/07/07 01:42:38;;;;;;;4.43;2.17;;;;;;;18.18;62.33;100461.50;4935336;29;20437;-70
2022/07/07 01:45:08;;;;;;;3.15;2.08;;;;;;;18.12;63.52;100462.03;4935342;29;20056;-71
2022/07/07 01:47:36;;;;;;;4.13;2.30;;;;;;;18.14;63.81;100468.13;4935312;29;20494;-71
2022/07/07 01:50:06;;;;;;;3.20;2.20;;;;;;;18.12;63.85;100459.31;4935667;29;20047;-69
2022/07/07 01:52:35;;;;;;;4.55;2.50;;;;;;;18.02;65.45;100461.97;4935586;29;20044;-70
2022/07/07 01:55:03;;;;;;;3.60;2.33;;;;;;;18.16;65.05;100462.63;4935370;29;20051;-70
2022/07/07 01:57:33;;;;;;;3.30;2.35;;;;;;;18.07;65.58;100461.59;4937956;29;20055;-71
2022/07/07 02:00:02;;;;;;;3.40;2.28;;;;;;;18.19;65.71;100457.78;4939216;29;20044;-71
2022/07/07 02:02:30;;;;;;;3.88;2.30;;;;;;;17.99;68.02;100469.50;4938963;29;20043;-71
2022/07/07 02:04:58;;;;;;;3.25;2.00;;;;;;;17.89;68.73;100465.91;4939075;29;20044;-71
2022/07/07 02:07:26;;;;;;;3.10;2.30;;;;;;;17.85;70.11;100467.13;4938714;29;20445;-71
2022/07/07 02:09:55;;;;;;;4.03;2.60;;;;;;;17.71;72.08;100462.94;4938808;29;20453;-71
2022/07/07 02:12:23;;;;;;;3.80;2.45;;;;;;;17.54;73.90;100469.75;4938669;29;20067;-71
2022/07/07 02:14:52;;;;;;;4.65;2.50;;;;;;;17.61;74.93;100467.41;4938590;29;20055;-71
2022/07/07 02:17:22;;;;;;;5.20;2.47;;;;;;;17.53;74.42;100473.44;4938857;29;20466;-70
2022/07/07 02:19:51;;;;;;;5.43;2.70;;;;;;;17.36;76.68;100471.31;4938635;29;20048;-70
2022/07/07 02:22:19;;;;;;;4.55;2.60;;;;;;;17.26;77.68;100473.09;4938936;29;20048;-72
2022/07/07 02:24:47;;;;;;;6.00;2.47;;;;;;;17.56;74.52;100464.22;4938838;29;20138;-70
2022/07/07 02:27:15;;;;;;;4.15;2.40;;;;;;;17.59;71.06;100464.84;4938554;29;20063;-70
2022/07/07 02:29:43;;;;;;;4.53;2.45;;;;;;;17.50;73.45;100468.31;4938344;29;20394;-71
2022/07/07 02:32:13;;;;;;;5.82;2.60;;;;;;;17.64;72.70;100459.03;4938368;29;20085;-71
2022/07/07 02:34:41;;;;;;;5.85;3.13;;;;;;;17.45;73.81;100462.44;4938157;29;20051;-71
2022/07/07 02:37:10;;;;;;;4.05;2.45;;;;;;;17.39;74.74;100461.16;4938377;29;20047;-71
2022/07/07 02:39:38;;;;;;;3.80;2.50;;;;;;;17.44;72.97;100463.44;4938161;29;20044;-71
2022/07/07 02:42:06;;;;;;;6.40;2.60;;;;;;;17.43;72.77;100464.44;4938117;29;20047;-71
2022/07/07 02:44:34;;;;;;;4.40;2.30;;;;;;;17.48;72.03;100467.59;4938183;29;20486;-71
2022/07/07 02:47:03;;;;;;;4.72;2.60;;;;;;;17.32;74.27;100467.19;4938019;29;20040;-72
2022/07/07 02:49:33;;;;;;;4.82;2.75;;;;;;;17.22;75.92;100467.13;4920841;29;20055;-72
2022/07/07 02:52:03;;;;;;;4.22;2.65;;;;;;;17.27;74.93;100462.19;4938210;29;20126;-71
2022/07/07 02:54:31;;;;;;;4.80;2.95;;;;;;;17.29;75.79;100464.78;4937919;29;20410;-71
2022/07/07 02:56:59;;;;;;;4.75;2.80;;;;;;;17.36;76.10;100460.53;4938099;29;20497;-73
2022/07/07 02:59:27;;;;;;;5.05;3.00;;;;;;;17.13;76.64;100459.81;4937720;29;20095;-72
2022/07/07 03:01:56;;;;;;;5.68;3.03;;;;;;;16.94;79.66;100460.50;4937853;29;20040;-71
2022/07/07 03:04:24;;;;;;;6.05;3.42;;;;;;;17.04;77.94;100458.75;4937754;29;20103;-72
2022/07/07 03:06:53;;;;;;;7.90;3.40;;;;;;;17.08;77.46;100464.72;4937497;29;20548;-71
2022/07/07 03:09:22;;;;;;;5.85;3.30;;;;;;;17.07;78.26;100463.84;4937726;29;20131;-71
2022/07/07 03:11:50;;;;;;;5.95;3.17;;;;;;;17.07;79.45;100460.31;4937736;29;20505;-71
2022/07/07 03:14:18;;;;;;;5.95;3.03;;;;;;;17.25;78.37;100457.91;4937652;29;20126;-70
2022/07/07 03:16:47;;;;;;;6.70;3.40;;;;;;;17.28;76.42;100457.66;4937294;29;20043;-71
2022/07/07 03:19:15;;;;;;;6.15;3.42;;;;;;;17.19;77.52;100458.44;4938017;29;20048;-70
2022/07/07 03:21:43;;;;;;;5.35;3.30;;;;;;;17.17;78.23;100458.53;4937239;29;20057;-71
2022/07/07 03:24:14;;;;;;;5.55;3.05;;;;;;;17.36;76.26;100455.16;4937454;29;20489;-70
2022/07/07 03:26:42;;;;;;;5.97;3.60;;;;;;;17.28;76.98;100457.66;4937199;29;20056;-70
2022/07/07 03:29:10;;;;;;;5.10;3.60;;;;;;;17.31;76.29;100460.09;4937141;29;20457;-71
2022/07/07 03:31:38;;;;;;;4.78;3.42;;;;;;;17.35;77.63;100456.13;4937364;29;20056;-71
2022/07/07 03:34:07;;;;;;;6.38;3.20;;;;;;;17.39;77.14;100463.00;4920271;29;20047;-70
2022/07/07 03:36:35;;;;;;;7.60;3.53;;;;;;;17.46;77.11;100462.31;4937094;29;20095;-70
2022/07/07 03:39:03;;;;;;;4.53;3.17;;;;;;;17.81;74.97;100466.56;4937266;29;20039;-71
2022/07/07 03:41:33;;;;;;;4.75;3.08;;;;;;;18.29;72.27;100466.78;4936971;29;20537;-70
2022/07/07 03:44:01;;;;;;;4.60;2.90;;;;;;;18.83;68.06;100462.00;4937098;29;20150;-71
2022/07/07 03:46:29;;;;;;;4.70;3.15;;;;;;;19.19;66.33;100463.13;4919804;29;20048;-73
2022/07/07 03:48:58;;;;;;;4.80;3.00;;;;;;;20.26;60.92;100464.63;4936889;29;20048;-71
2022/07/07 03:51:26;;;;;;;7.00;3.10;;;;;;;20.87;57.64;100463.19;4936998;29;20126;-71
2022/07/07 03:53:54;;;;;;;6.05;3.08;;;;;;;21.26;55.37;100473.75;4936818;29;20044;-71
2022/07/07 03:56:23;;;;;;;6.88;3.10;;;;;;;22.08;52.92;100470.66;4937143;29;20509;-72
2022/07/07 03:58:53;;;;;;;7.45;3.20;;;;;;;23.11;49.57;100463.25;4937106;29;20051;-72
2022/07/07 04:01:21;;;;;;;4.40;2.75;;;;;;;23.22;48.85;100462.06;4936901;29;20043;-72
2022/07/07 04:03:50;;;;;;;7.00;2.70;;;;;;;24.08;46.43;100461.50;4936489;29;20082;-72
2022/07/07 04:06:18;;;;;;;6.40;2.97;;;;;;;23.83;47.03;100467.00;4936633;29;20054;-71
2022/07/07 04:08:46;;;;;;;5.35;2.72;;;;;;;24.60;45.20;100463.72;4936186;29;20056;-71
2022/07/07 04:11:15;;;;;;;7.78;2.88;;;;;;;24.70;44.44;100458.91;4919723;29;20056;-72
2022/07/07 04:13:43;;;;;;;5.10;2.90;;;;;;;24.61;44.39;100459.97;4936370;29;20107;-72
2022/07/07 04:16:13;;;;;;;6.65;3.20;;;;;;;24.58;44.25;100454.88;4936475;29;20054;-72
2022/07/07 04:18:41;;;;;;;4.57;3.00;;;;;;;24.60;44.72;100458.25;4918922;29;20056;-72
2022/07/07 04:21:09;;;;;;;5.13;3.00;;;;;;;24.84;44.16;100455.41;4936360;29;20098;-71
2022/07/07 04:23:37;;;;;;;4.78;2.70;;;;;;;24.86;44.30;100456.09;4936168;29;20047;-70
2022/07/07 04:26:06;;;;;;;7.00;2.70;;;;;;;24.90;44.40;100457.44;4936360;29;20118;-70
2022/07/07 04:28:34;;;;;;;6.07;2.90;;;;;;;24.69;44.20;100455.31;4935942;29;20048;-71
2022/07/07 04:31:02;;;;;;;5.68;2.63;;;;;;;25.75;41.96;100467.38;4935870;29;20051;-70
2022/07/07 04:33:32;;;;;;;6.88;2.67;;;;;;;25.54;42.52;100452.53;4936155;29;20039;-72
2022/07/07 04:36:01;;;;;;;5.88;3.08;;;;;;;25.50;42.19;100451.22;4936106;29;20043;-70
2022/07/07 04:38:29;;;;;;;4.47;2.80;;;;;;;25.74;41.69;100462.97;4918876;29;20391;-71
2022/07/07 04:40:57;;;;;;;6.28;2.65;;;;;;;26.41;40.22;100455.59;4936097;29;20044;-70
2022/07/07 04:43:25;;;;;;;5.20;2.80;;;;;;;26.50;40.33;100448.97;4935862;29;20493;-70
2022/07/07 04:45:54;;;;;;;5.78;2.78;;;;;;;26.31;40.48;100448.69;4935928;29;20054;-70
2022/07/07 04:48:23;;;;;;;5.53;2.92;;;;;;;26.31;40.48;100444.06;4935587;29;20124;-71
2022/07/07 04:50:52;;;;;;;6.10;2.78;;;;;;;25.97;41.54;100444.63;4935646;29;20047;-71
2022/07/07 04:53:21;;;;;;;5.03;2.92;;;;;;;26.27;41.15;100447.38;4936131;29;20078;-71
2022/07/07 04:55:49;;;;;;;5.60;2.83;;;;;;;26.08;41.70;100449.63;4935646;29;20047;-70
2022/07/07 04:58:17;;;;;;;5.82;2.75;;;;;;;26.46;40.70;100452.28;4935802;29;20040;-70
2022/07/07 05:00:45;;;;;;;6.18;3.25;;;;;;;26.69;40.52;100447.53;4935650;29;20127;-71
2022/07/07 05:03:13;;;;;;;5.68;2.60;;;;;;;27.16;39.31;100448.06;4935701;29;20474;-71
2022/07/07 05:05:42;;;;;;;4.55;2.83;;;;;;;26.88;39.93;100451.53;4935720;29;20071;-71
2022/07/07 05:08:11;;;;;;;7.38;3.13;;;;;;;26.95;39.74;100446.97;4935819;29;20138;-68
2022/07/07 05:10:39;;;;;;;5.25;2.78;;;;;;;26.93;40.10;100448.22;4935761;29;20046;-70
2022/07/07 05:13:07;;;;;;;6.28;3.00;;;;;;;26.61;40.67;100444.88;4935594;29;20059;-70
2022/07/07 05:15:35;;;;;;;5.97;2.80;;;;;;;26.17;41.82;100447.66;4935496;29;20044;-71
2022/07/07 05:18:04;;;;;;;8.25;3.10;;;;;;;27.12;40.09;100447.63;4935868;29;20075;-69
2022/07/07 05:20:32;;;;;;;6.75;2.95;;;;;;;28.38;37.78;100456.88;4947552;29;20106;-70
2022/07/07 05:23:00;;;;;;;5.72;2.83;;;;;;;28.24;37.40;100451.25;4954833;29;20403;-69
2022/07/07 05:25:30;;;;;;;6.82;2.70;;;;;;;28.02;38.03;100448.81;4938920;29;20119;-70
2022/07/07 05:27:58;;;;;;;4.30;2.80;;;;;;;28.24;37.25;100453.16;4934611;29;20051;-72
2022/07/07 05:30:26;;;;;;;5.55;2.90;;;;;;;28.43;36.65;100452.44;4935180;29;20474;-72
2022/07/07 05:32:54;;;;;;;6.75;2.95;;;;;;;29.35;34.57;100451.06;4901002;29;20041;-68
2022/07/07 05:35:23;;;;;;;4.85;2.92;;;;;;;28.69;36.01;100448.13;4900379;29;20073;-74
2022/07/07 05:37:51;;;;;;;5.15;2.70;;;;;;;28.88;35.89;100450.09;4900680;29;20127;-73
2022/07/07 05:40:19;;;;;;;5.20;2.88;;;;;;;29.20;34.76;100447.66;4901093;29;20051;-70
2022/07/07 05:42:48;;;;;;;4.38;2.33;;;;;;;29.37;33.93;100448.94;4900781;29;20056;-72
2022/07/07 05:45:22;;;;;;;4.43;2.50;;;;;;;29.73;33.22;100453.22;4899522;29;20136;-70
2022/07/07 05:47:50;;;;;;;3.40;2.47;;;;;;;29.82;32.69;100458.28;4900577;29;20044;-70
2022/07/07 05:50:18;;;;;;;4.32;2.50;;;;;;;29.84;32.39;100445.16;4900596;29;20100;-72
2022/07/07 05:52:47;;;;;;;3.92;2.22;;;;;;;29.64;32.72;100453.44;4900548;29;20056;-70
2022/07/07 05:55:15;;;;;;;3.83;1.98;;;;;;;30.10;31.42;100444.28;4900777;29;20059;-70
2022/07/07 05:57:43;;;;;;;6.03;2.38;;;;;;;29.81;31.92;100440.06;4914947;29;20040;-72
2022/07/07 06:00:14;;;;;;;4.15;2.30;;;;;;;30.28;30.97;100440.84;4920288;29;20045;-70
2022/07/07 06:02:43;;;;;;;4.45;2.13;;;;;;;30.72;30.95;100445.59;4919722;29;20044;-72
2022/07/07 06:05:11;;;;;;;4.40;2.38;;;;;;;30.39;31.36;100447.59;4919815;29;20051;-72
2022/07/07 06:07:44;;;;;;;4.35;2.45;;;;;;;30.62;30.54;100444.34;4919322;29;20040;-69
2022/07/07 06:10:14;;;;;;;5.70;2.35;;;;;;;30.59;30.76;100440.09;4919636;29;20052;-70
2022/07/07 06:12:42;;;;;;;4.03;2.30;;;;;;;30.04;31.95;100445.13;4919476;29;20044;-70
2022/07/07 06:15:13;;;;;;;4.63;2.42;;;;;;;30.19;32.25;100443.00;4919513;29;20048;-70
2022/07/07 06:17:41;;;;;;;5.35;2.30;;;;;;;31.27;29.20;100445.94;4919193;29;20071;-71
2022/07/07 06:20:29;;;;;;;4.63;1.92;;;;;;;31.73;28.78;100449.38;4919468;29;20052;-71
2022/07/07 06:22:58;;;;;;;5.75;2.58;;;;;;;31.09;28.59;100451.34;4919150;29;20090;-70
2022/07/07 06:25:27;;;;;;;5.78;2.60;;;;;;;31.20;28.92;100450.66;4918917;29;20048;-72
2022/07/07 06:27:55;;;;;;;3.15;1.95;;;;;;;31.58;28.09;100456.09;4901875;29;20052;-69
2022/07/07 06:30:25;;;;;;;4.53;2.10;;;;;;;31.46;29.08;100449.63;4919031;29;20077;-71
2022/07/07 06:32:54;;;;;;;4.63;2.33;;;;;;;31.93;28.31;100449.22;4919361;29;20104;-71
2022/07/07 06:35:24;;;;;;;3.20;2.10;;;;;;;32.81;26.06;100446.06;4919234;29;20103;-70
2022/07/07 06:37:54;;;;;;;3.63;1.90;;;;;;;32.70;26.05;100447.72;4919004;29;20092;-71
2022/07/07 06:40:23;;;;;;;4.00;2.20;;;;;;;32.39;26.40;100444.06;4917570;29;20589;-71
2022/07/07 06:42:51;;;;;;;4.63;2.42;;;;;;;32.26;26.36;100444.19;4910140;29;20060;-74
2022/07/07 06:45:19;;;;;;;4.10;2.20;;;;;;;32.26;26.44;100438.69;4908108;29;20486;-72
2022/07/07 06:47:49;;;;;;;3.40;1.90;;;;;;;32.01;27.18;100447.00;4909147;29;20150;-72
2022/07/07 06:50:24;;;;;;;4.18;2.10;;;;;;;32.03;26.87;100442.09;4891365;29;20083;-71
2022/07/07 06:52:53;;;;;;;4.25;2.15;;;;;;;32.36;27.25;100441.78;4908662;29;20047;-70
2022/07/07 06:55:21;;;;;;;3.75;2.03;;;;;;;32.51;26.35;100435.00;4912546;29;20406;-71
2022/07/07 06:57:49;;;;;;;4.40;2.10;;;;;;;32.85;25.68;100430.78;4915467;29;20040;-69
2022/07/07 07:00:18;;;;;;;3.38;2.20;;;;;;;32.03;27.48;100432.97;4918828;29;20079;-75
2022/07/07 07:02:48;;;;;;;5.57;2.13;;;;;;;31.83;27.20;100439.53;4918780;29;20091;-70
2022/07/07 07:05:19;;;;;;;6.75;2.00;;;;;;;31.29;28.17;100430.03;4918718;29;20501;-72
2022/07/07 07:07:47;;;;;;;6.90;2.20;;;;;;;30.48;29.41;100441.63;4918336;29;20048;-71
2022/07/07 07:10:16;;;;;;;5.50;2.40;;;;;;;30.20;28.95;100433.69;4918589;29;20131;-70
2022/07/07 07:13:04;;;;;;;4.15;2.20;;;;;;;29.73;30.38;100447.72;4918698;29;20139;-71
2022/07/07 07:15:32;;;;;;;5.72;2.05;;;;;;;29.39;30.78;100435.00;4918662;29;20143;-66
2022/07/07 07:18:00;;;;;;;5.35;2.10;;;;;;;28.71;31.21;100437.78;4908729;29;20075;-72
2022/07/07 07:20:30;;;;;;;3.85;1.98;;;;;;;28.68;32.01;100441.81;4909050;29;20041;-72
2022/07/07 07:22:58;;;;;;;3.45;2.00;;;;;;;28.90;31.54;100445.28;4918031;29;20048;-71
2022/07/07 07:25:26;;;;;;;3.78;1.98;;;;;;;28.72;31.58;100434.00;4917926;29;20131;-70
2022/07/07 07:27:55;;;;;;;2.90;1.90;;;;;;;28.55;31.62;100443.63;4917971;29;20048;-70
2022/07/07 07:30:23;;;;;;;2.80;1.90;;;;;;;27.45;33.28;100436.13;4917661;29;20080;-69
2022/07/07 07:32:53;;;;;;;3.75;2.17;;;;;;;27.55;32.86;100442.09;4952186;28;20055;-71
2022/07/07 07:35:22;;;;;;;4.05;2.20;;;;;;;27.90;33.12;100427.44;4920096;29;20572;-69
2022/07/07 07:37:52;;;;;;;3.63;2.05;;;;;;;28.24;32.16;100431.22;4949904;29;20568;-71
2022/07/07 07:40:21;;;;;;;5.20;2.17;;;;;;;28.16;32.69;100429.47;4940554;29;20083;-71
2022/07/07 07:42:49;;;;;;;4.18;2.15;;;;;;;26.82;34.36;100428.50;4955923;29;20476;-68
2022/07/07 07:45:17;;;;;;;3.17;2.10;;;;;;;27.37;33.74;100431.63;4955985;29;20047;-68
2022/07/07 07:47:47;;;;;;;6.22;2.33;;;;;;;27.42;34.11;100431.91;4955087;29;20051;-69
2022/07/07 07:50:18;;;;;;;5.68;2.20;;;;;;;27.52;33.71;100426.91;4956169;29;20039;-69
2022/07/07 07:52:48;;;;;;;4.47;2.13;;;;;;;27.44;33.55;100427.06;4956127;29;20110;-69
2022/07/07 07:55:19;;;;;;;4.95;2.38;;;;;;;26.48;35.90;100420.13;4954764;28;20055;-68
2022/07/07 07:57:48;;;;;;;4.20;2.17;;;;;;;27.24;33.71;100429.63;4955633;29;20070;-69
2022/07/07 08:00:19;;;;;;;11.13;2.50;;;;;;;27.43;34.41;100419.88;4955870;29;20055;-69
2022/07/07 08:02:48;;;;;;;4.38;2.40;;;;;;;27.70;32.44;100422.84;4955403;29;20067;-68
2022/07/07 08:05:19;;;;;;;4.00;2.00;;;;;;;27.72;32.89;100416.16;4938691;29;20047;-70
2022/07/07 08:07:47;;;;;;;4.85;2.20;;;;;;;27.74;33.20;100413.19;4938001;29;20567;-70
2022/07/07 08:10:17;;;;;;;5.00;2.03;;;;;;;27.74;32.11;100425.00;4941703;29;20619;-70
2022/07/07 08:12:47;;;;;;;4.07;2.08;;;;;;;27.77;31.72;100418.28;4936581;29;20047;-69
2022/07/07 08:15:18;;;;;;;3.70;2.55;;;;;;;27.62;32.75;100423.84;4936637;29;20055;-69
2022/07/07 08:17:51;;;;;;;3.13;2.00;;;;;;;27.52;32.45;100426.06;4935097;29;20417;-69
2022/07/07 08:20:19;;;;;;;6.28;2.30;;;;;;;27.81;32.65;100417.69;4936393;29;20048;-72
2022/07/07 08:22:48;;;;;;;5.18;1.88;;;;;;;27.85;32.33;100421.69;4936194;29;20453;-69
2022/07/07 08:25:16;;;;;;;3.60;2.30;;;;;;;27.74;32.61;100430.50;4936343;29;20051;-69
2022/07/07 08:27:46;;;;;;;7.05;2.22;;;;;;;27.70;31.87;100429.22;4935825;29;20047;-69
2022/07/07 08:30:15;;;;;;;5.63;2.20;;;;;;;27.35;32.18;100428.25;4936217;29;20131;-69
2022/07/07 08:32:45;;;;;;;4.70;2.10;;;;;;;27.32;32.22;100428.66;4936239;29;20072;-69
2022/07/07 08:35:14;;;;;;;3.63;1.98;;;;;;;26.78;33.10;100424.47;4918864;29;20382;-69
2022/07/07 08:37:43;;;;;;;5.50;2.00;;;;;;;26.91;32.17;100425.66;4918848;29;20405;-69
2022/07/07 08:40:11;;;;;;;4.28;2.00;;;;;;;27.09;32.96;100420.63;4936158;29;20050;-69
2022/07/07 08:42:41;;;;;;;4.55;1.83;;;;;;;27.03;32.58;100426.88;4936304;29;20054;-70
2022/07/07 08:45:11;;;;;;;4.47;2.10;;;;;;;27.48;32.40;100425.59;4936016;29;20044;-70
2022/07/07 08:47:39;;;;;;;3.28;2.08;;;;;;;27.60;30.79;100428.63;4935930;29;20059;-69
2022/07/07 08:50:16;;;;;;;4.05;1.92;;;;;;;27.65;31.05;100420.69;4935928;29;20047;-69
2022/07/07 08:52:50;;;;;;;7.13;2.00;;;;;;;27.38;30.01;100412.25;4936041;29;20052;-69
2022/07/07 08:55:21;;;;;;;4.25;2.30;;;;;;;27.42;29.97;100409.13;4935622;29;20552;-69
2022/07/07 08:57:51;;;;;;;4.75;2.05;;;;;;;27.48;29.62;100408.31;4935511;29;20408;-69
2022/07/07 09:00:22;;;;;;;4.25;1.90;;;;;;;27.48;29.88;100405.59;4935567;29;20083;-70
2022/07/07 09:02:51;;;;;;;5.07;2.58;;;;;;;27.43;30.12;100408.94;4918851;29;20168;-70
2022/07/07 09:05:19;;;;;;;4.88;2.13;;;;;;;27.58;29.88;100401.44;4935831;29;20075;-70
2022/07/07 09:07:49;;;;;;;4.13;1.90;;;;;;;27.63;29.04;100400.88;4947900;28;20042;-69
2022/07/07 09:10:29;;;;;;;4.13;1.90;;;;;;;27.07;29.26;100406.28;4974324;28;20101;-70
2022/07/07 09:12:58;;;;;;;4.95;1.80;;;;;;;26.86;29.50;100398.03;4970966;28;20125;-70
2022/07/07 09:15:30;;;;;;;3.00;1.67;;;;;;;27.06;29.30;100391.75;4944195;28;20503;-72
2022/07/07 09:17:59;;;;;;;5.95;1.83;;;;;;;27.24;29.35;100396.75;4956144;28;20062;-69
2022/07/07 09:20:28;;;;;;;2.70;1.83;;;;;;;27.32;28.35;100399.38;4925701;28;20079;-69
2022/07/07 09:22:59;;;;;;;3.60;1.75;;;;;;;27.55;27.39;100393.63;4955448;28;20118;-73
2022/07/07 09:25:31;;;;;;;4.20;1.88;;;;;;;27.67;27.87;100381.09;4954079;28;20046;-71
2022/07/07 09:28:02;;;;;;;4.22;1.70;;;;;;;28.26;26.85;100385.22;4939766;29;20048;-68
2022/07/07 09:30:34;;;;;;;4.43;1.95;;;;;;;28.60;27.98;100387.09;4938487;29;20090;-71
2022/07/07 09:33:05;;;;;;;2.88;1.80;;;;;;;28.54;27.65;100381.56;4936594;29;20047;-71
2022/07/07 09:38:25;;;;;;;3.78;1.90;;;;;;;28.40;28.76;100389.78;4935070;29;20058;-74
2022/07/07 09:40:58;;;;;;;8.07;3.30;;;;;;;28.27;30.55;100386.91;4946257;29;20047;-74
2022/07/07 09:43:27;;;;;;;6.75;2.40;;;;;;;28.12;30.24;100392.56;4961765;28;20047;-75
2022/07/07 09:46:15;;;;;;;4.32;2.20;;;;;;;28.10;29.69;100396.56;4935580;29;20094;-75
2022/07/07 09:48:46;;;;;;;4.68;2.10;;;;;;;28.16;29.79;100387.50;4935278;29;20047;-75
2022/07/07 09:51:17;;;;;;;4.97;2.25;;;;;;;27.98;29.60;100387.19;4945412;28;20111;-72
2022/07/07 09:54:01;;;;;;;4.68;2.45;;;;;;;27.97;29.40;100390.97;4938049;28;20413;-73
2022/07/07 09:56:31;;;;;;;3.28;1.90;;;;;;;27.90;29.79;100397.28;4956578;28;20066;-75
2022/07/07 09:59:02;;;;;;;4.55;1.85;;;;;;;27.87;29.20;100396.84;4956183;28;20102;-72
2022/07/07 10:01:33;;;;;;;3.58;2.08;;;;;;;27.76;29.62;100392.75;4935678;28;20099;-71
2022/07/07 10:04:03;;;;;;;3.45;1.65;;;;;;;27.61;30.70;100392.00;4933730;29;20079;-72
2022/07/07 10:06:35;;;;;;;6.88;2.10;;;;;;;27.59;29.65;100394.06;4944869;28;20095;-72
2022/07/07 10:09:07;;;;;;;6.57;2.20;;;;;;;27.60;29.92;100395.75;4934718;29;20047;-75
2022/07/07 10:11:38;;;;;;;4.38;1.90;;;;;;;27.20;30.33;100398.19;4917742;29;20056;-73
2022/07/07 10:14:16;;;;;;;5.53;1.80;;;;;;;27.23;30.52;100394.22;4940966;29;20094;-71
2022/07/07 10:16:48;;;;;;;4.50;1.95;;;;;;;26.93;30.67;100390.75;4954247;28;20102;-75
2022/07/07 10:19:18;;;;;;;5.85;2.13;;;;;;;26.75;31.45;100400.25;4940402;29;20051;-72
2022/07/07 10:21:48;;;;;;;3.72;1.95;;;;;;;26.53;32.43;100393.88;4957915;29;20102;-70
2022/07/07 10:24:18;;;;;;;5.50;2.20;;;;;;;26.43;33.38;100395.22;4957303;29;20543;-72
2022/07/07 10:26:49;;;;;;;4.28;1.88;;;;;;;26.30;33.46;100397.78;4957392;29;20106;-72
2022/07/07 10:29:19;;;;;;;4.35;2.15;;;;;;;26.27;33.84;100395.44;4957415;29;20496;-70
2022/07/07 10:31:52;;;;;;;6.22;2.20;;;;;;;26.27;34.03;100388.06;4957353;29;20126;-71
2022/07/07 10:34:21;;;;;;;5.90;2.20;;;;;;;26.61;33.76;100390.19;4957309;29;20051;-71
2022/07/07 10:37:08;;;;;;;4.47;2.33;;;;;;;26.82;33.28;100383.88;4946670;28;20133;-70
2022/07/07 10:39:42;;;;;;;4.20;2.10;;;;;;;27.04;32.68;100387.53;4957369;29;20078;-70
2022/07/07 10:42:35;;;;;;;4.47;1.92;;;;;;;27.12;33.18;100384.66;4957497;29;20138;-68
2022/07/07 10:45:05;;;;;;;4.97;2.28;;;;;;;27.41;32.80;100385.50;4957105;29;20039;-76
2022/07/07 10:47:36;;;;;;;4.50;2.28;;;;;;;27.62;32.85;100382.75;4957945;28;20047;-72
2022/07/07 10:50:22;;;;;;;4.72;2.15;;;;;;;27.98;32.29;100381.72;4976240;28;20039;-71
2022/07/07 10:52:50;;;;;;;4.40;2.05;;;;;;;27.93;31.70;100374.09;4958870;28;20074;-74
2022/07/07 10:55:58;;;;;;;29.98;4.97;;;;;;;27.79;32.47;100373.16;4956961;29;20481;-72
2022/07/07 10:58:52;;;;;;;5.13;2.00;;;;;;;27.76;32.05;100368.09;4956836;29;20400;-74
2022/07/07 11:01:20;;;;;;;8.52;2.17;;;;;;;27.73;32.24;100360.28;4932584;29;20063;-75
2022/07/07 11:03:50;;;;;;;4.40;2.08;;;;;;;27.06;32.77;100360.78;4947596;28;20043;-72
2022/07/07 11:06:19;;;;;;;3.90;1.85;;;;;;;26.90;32.93;100358.28;4947766;28;20966;-71
2022/07/07 11:09:04;;;;;;;5.75;1.80;;;;;;;26.62;33.32;100364.50;4951851;29;20446;-70
2022/07/07 11:11:32;;;;;;;3.60;1.75;;;;;;;26.88;32.94;100355.75;4939486;29;20054;-70
2022/07/07 11:14:10;;;;;;;6.78;2.28;;;;;;;27.00;33.15;100353.31;4950587;29;20058;-68
2022/07/07 11:16:40;;;;;;;5.30;1.90;;;;;;;26.63;33.23;100348.94;4937280;29;20043;-69
2022/07/07 11:19:10;;;;;;;4.72;1.90;;;;;;;26.96;33.82;100349.28;4937696;29;20048;-69
2022/07/07 11:21:44;;;;;;;2.72;1.60;;;;;;;27.09;32.81;100346.69;4937866;29;20111;-70
2022/07/07 11:24:18;;;;;;;3.28;2.13;;;;;;;27.56;32.87;100334.22;4937179;29;20489;-69
2022/07/07 11:26:58;;;;;;;3.63;1.85;;;;;;;27.28;32.40;100335.06;4937604;29;20044;-69
2022/07/07 11:29:26;;;;;;;5.72;2.30;;;;;;;27.46;32.68;100323.63;4936231;29;20050;-69
2022/07/07 11:32:03;;;;;;;5.40;2.00;;;;;;;27.58;32.29;100326.63;4936599;29;20493;-70
2022/07/07 11:34:44;;;;;;;3.45;1.75;;;;;;;27.61;32.54;100327.09;4937068;29;20048;-69
2022/07/07 11:37:25;;;;;;;6.82;2.30;;;;;;;27.33;33.60;100324.38;4937130;29;20047;-69
2022/07/07 11:39:56;;;;;;;3.70;1.92;;;;;;;27.44;33.25;100317.50;4920088;29;20103;-70